Green Bay, WI

9:35 AM CDT on September 04, 2015 (GMT -0500)
South Ashwaubenon | | Change Station
CLOSE
Current Station
Personal Weather Station
Location: Green Bay, WI
Elevation: 643 ft
Nearby Weather Stations

Elev 643 ft 44.48 °N, 88.09 °W | Updated 10 minutes ago

Overcast
Overcast
71.4 °F
Feels Like 70 °F
N
1.7
Wind Variable Wind from ESE

Today
High -- | Low -- °F
--% Chance of Precip.
Yesterday
High -- | Low -- °F
Precip. -- in
6:18 AM 7:23 PM
Waning Gibbous, 59% visible
Pressure 30.03 in
Visibility 7.0 miles
Clouds Overcast 600 ft
Heat Index 70 °F
Dew Point 67 °F
Humidity 85%
Rainfall 0.00 in
Snow Depth Not available.
UV 1 out of 12
Pollen 8.90 out of 12
Air Quality Not available.
Flu Activity Not available.
METAR KGRB 041353Z 03007KT 7SM OVC006 20/18 A3004 RMK AO2 SLP169 T02000183
Pressure 30.03 in
Visibility 7.0 miles
Clouds Overcast 600 ft
Heat Index 70 °F
Dew Point 67 °F
Humidity 85%
Rainfall 0.00 in
Snow Depth Not available.
UV 1 out of 12
Pollen 8.90 out of 12
Air Quality Not available.
Flu Activity Not available.
METAR KGRB 041353Z 03007KT 7SM OVC006 20/18 A3004 RMK AO2 SLP169 T02000183

10-Day Weather Forecast

×

Almanac

Astronomy

Sep. 04, 2015 Rise Set
Actual Time
Civil Twilight
Nautical Twilight
Astronomical Twilight
Moon
Length of Visible Light
Length of Day
Tomorrow will be .
, % of the Moon is Illuminated

Today's Extremes

State Highs State Lows

Community

WunderPhotos

Upload Photos

1,852,186 photos uploaded!

WunderBlogs® & News

Nearby

Air Quality

  Air Quality AQ Index Pollutant
Not available.

Snow Depth

Station Depth Elevation

Earthquake Activity

City Distance Mag. Time & Date
Minimum magnitude displayed is 2.5.

Coastal Water Temperatures

Place Temperature

Stations

Nearby Weather Stations

Station Location Temp. Windchill Dew Point Humidity Wind Precip. Elev Updated Type